首页
METAR-TAF:

METAR-TAF

机场 :

卡斯珀, 怀俄明州, 美国

纬度: 42-53-51N, 经度: 106-28-23W, 海拔: 1630米

当前天气观测

该预报发布于23分钟前的20:53 UTC
风速12节,风向
温度 20°C
湿度 46%
气压 1005 hPa
能見度: 16.1公里
少量云层高于4100英尺
少量云层高于8000英尺

METAR: KCPR 062053Z 19012KT 10SM FEW041 FEW080 20/08 A2968 RMK AO2 PK WND 22031/2000 SLP978 60001 T02000083 58036

时间: 15:16 (21:16 UTC)

预报

该预报发布于3小时和37分钟前的17:39 UTC
预报有效从06日的 18点(UTC)到 07日的 18点(UTC)
风速18节,风向西南,有时为28节阵风
能見度: 10公里
散云层高于8000英尺
多云层高于14000英尺
附近有阵雨
从 06日的 1900点(UTC)
风速25节,风向西南,有时为35节阵风
能見度: 10公里
散云层高于7000英尺
多云层高于11000英尺
附近有阵雨
短暂存在
从 06日的 21点(UTC)到 06日的 24点(UTC)
风速32节,风向多变,有时为48节阵风
能見度: 9.7公里
散云层高于4000英尺
多云层高于7000英尺, 积雨云.
雷暴, 小雨
从 07日的 0300点(UTC)
风速15节,风向西南,有时为25节阵风
能見度: 10公里
散云层高于10000英尺
多云层高于20000英尺
从 07日的 1500点(UTC)
风速22节,风向西南,有时为32节阵风
能見度: 10公里
散云层高于10000英尺
多云层高于15000英尺

TAF: KCPR 061739Z 0618/0718 22018G28KT P6SM VCSH SCT080 BKN140 FM061900 22025G35KT P6SM VCSH SCT070 BKN110 TEMPO 0621/0624 VRB32G48KT 6SM -TSRA SCT040 BKN070CB FM070300 22015G25KT P6SM SCT100 BKN200 FM071500 22022G32KT P6SM SCT100 BKN150

超过4000个机场的气象观测和天气预报(METAR&TAF报告)。

可查询的气象台以黄色和红色小点在地图上表示。

将鼠标移到小点上方,可查看气象台名称。

然后点击查看天气观测和预报。

如需切换地图:点击带黑十字的绿色按钮放大地图;点击带横线的绿色按钮缩小地图;或者点击绿色箭头查看邻近地区的地图。


METAR-TAF: